sensor_id;sensor_type;location;lat;lon;timestamp;temperature;humidity
64226;DHT22;50545;56.064;26.178;2022-12-05T00:03:53;-2.70;99.90
64226;DHT22;50545;56.064;26.178;2022-12-05T00:06:22;-2.70;99.90
64226;DHT22;50545;56.064;26.178;2022-12-05T00:08:50;-2.70;99.90
64226;DHT22;50545;56.064;26.178;2022-12-05T00:11:23;-2.70;99.90
64226;DHT22;50545;56.064;26.178;2022-12-05T00:13:52;-2.70;99.90
64226;DHT22;50545;56.064;26.178;2022-12-05T00:16:22;-2.80;99.90
64226;DHT22;50545;56.064;26.178;2022-12-05T00:18:50;-2.80;99.90
64226;DHT22;50545;56.064;26.178;2022-12-05T00:21:24;-2.90;99.90
64226;DHT22;50545;56.064;26.178;2022-12-05T00:23:53;-2.90;99.90
64226;DHT22;50545;56.064;26.178;2022-12-05T00:26:21;-2.90;99.90
64226;DHT22;50545;56.064;26.178;2022-12-05T00:28:49;-2.90;99.90
64226;DHT22;50545;56.064;26.178;2022-12-05T00:31:19;-3.00;99.90
64226;DHT22;50545;56.064;26.178;2022-12-05T00:33:47;-3.00;99.90
64226;DHT22;50545;56.064;26.178;2022-12-05T00:36:23;-3.00;99.90
64226;DHT22;50545;56.064;26.178;2022-12-05T00:38:51;-3.00;99.90
64226;DHT22;50545;56.064;26.178;2022-12-05T00:41:21;-3.00;99.90
64226;DHT22;50545;56.064;26.178;2022-12-05T00:43:49;-3.00;99.90
64226;DHT22;50545;56.064;26.178;2022-12-05T00:46:20;-3.10;99.90
64226;DHT22;50545;56.064;26.178;2022-12-05T00:48:48;-3.10;99.90
64226;DHT22;50545;56.064;26.178;2022-12-05T00:51:25;-3.10;99.90
64226;DHT22;50545;56.064;26.178;2022-12-05T00:53:58;-3.10;99.90
64226;DHT22;50545;56.064;26.178;2022-12-05T00:56:27;-3.10;99.90
64226;DHT22;50545;56.064;26.178;2022-12-05T00:58:56;-3.20;99.90
64226;DHT22;50545;56.064;26.178;2022-12-05T01:01:28;-3.20;99.90
64226;DHT22;50545;56.064;26.178;2022-12-05T01:03:57;-3.20;99.90
64226;DHT22;50545;56.064;26.178;2022-12-05T01:06:26;-3.20;99.90
64226;DHT22;50545;56.064;26.178;2022-12-05T01:08:55;-3.20;99.90
64226;DHT22;50545;56.064;26.178;2022-12-05T01:11:24;-3.20;99.90
64226;DHT22;50545;56.064;26.178;2022-12-05T01:13:52;-3.20;99.90
64226;DHT22;50545;56.064;26.178;2022-12-05T01:16:26;-3.20;99.90
64226;DHT22;50545;56.064;26.178;2022-12-05T01:18:54;-3.20;99.90
64226;DHT22;50545;56.064;26.178;2022-12-05T01:21:22;-3.20;99.90
64226;DHT22;50545;56.064;26.178;2022-12-05T01:23:49;-3.20;99.90
64226;DHT22;50545;56.064;26.178;2022-12-05T01:26:19;-3.20;99.90
64226;DHT22;50545;56.064;26.178;2022-12-05T01:28:47;-3.20;99.90
64226;DHT22;50545;56.064;26.178;2022-12-05T01:33:41;-3.30;99.90
64226;DHT22;50545;56.064;26.178;2022-12-05T01:36:11;-3.20;99.90
64226;DHT22;50545;56.064;26.178;2022-12-05T01:38:41;-3.30;99.90
64226;DHT22;50545;56.064;26.178;2022-12-05T01:41:15;-3.30;99.90
64226;DHT22;50545;56.064;26.178;2022-12-05T01:46:27;-3.30;99.90
64226;DHT22;50545;56.064;26.178;2022-12-05T01:49:42;-3.20;99.90
64226;DHT22;50545;56.064;26.178;2022-12-05T01:51:51;-3.30;99.90
64226;DHT22;50545;56.064;26.178;2022-12-05T01:54:20;-3.30;99.90
64226;DHT22;50545;56.064;26.178;2022-12-05T01:56:55;-3.30;99.90
64226;DHT22;50545;56.064;26.178;2022-12-05T01:59:26;-3.30;99.90
64226;DHT22;50545;56.064;26.178;2022-12-05T02:01:54;-3.30;99.90
64226;DHT22;50545;56.064;26.178;2022-12-05T02:04:22;-3.40;99.90
64226;DHT22;50545;56.064;26.178;2022-12-05T02:06:49;-3.40;99.90
64226;DHT22;50545;56.064;26.178;2022-12-05T02:09:16;-3.40;99.90
64226;DHT22;50545;56.064;26.178;2022-12-05T02:11:52;-3.40;99.90
64226;DHT22;50545;56.064;26.178;2022-12-05T02:17:35;-3.40;99.90
64226;DHT22;50545;56.064;26.178;2022-12-05T02:23:18;-3.40;99.90
64226;DHT22;50545;56.064;26.178;2022-12-05T02:31:35;-3.50;99.90
64226;DHT22;50545;56.064;26.178;2022-12-05T02:34:18;-3.50;99.90
64226;DHT22;50545;56.064;26.178;2022-12-05T02:37:07;-3.60;99.90
64226;DHT22;50545;56.064;26.178;2022-12-05T02:39:50;-3.60;99.90
64226;DHT22;50545;56.064;26.178;2022-12-05T02:45:08;-3.60;99.90
64226;DHT22;50545;56.064;26.178;2022-12-05T02:47:49;-3.70;99.90
64226;DHT22;50545;56.064;26.178;2022-12-05T02:50:23;-3.70;99.90
64226;DHT22;50545;56.064;26.178;2022-12-05T02:52:53;-3.70;99.90
64226;DHT22;50545;56.064;26.178;2022-12-05T02:55:22;-3.70;99.90
64226;DHT22;50545;56.064;26.178;2022-12-05T02:57:57;-3.70;99.90
64226;DHT22;50545;56.064;26.178;2022-12-05T03:00:25;-3.70;99.90
64226;DHT22;50545;56.064;26.178;2022-12-05T03:02:55;-3.70;99.90
64226;DHT22;50545;56.064;26.178;2022-12-05T03:08:14;-3.80;99.90
64226;DHT22;50545;56.064;26.178;2022-12-05T03:10:44;-3.80;99.90
64226;DHT22;50545;56.064;26.178;2022-12-05T03:13:17;-3.80;99.90
64226;DHT22;50545;56.064;26.178;2022-12-05T03:15:48;-3.80;99.90
64226;DHT22;50545;56.064;26.178;2022-12-05T03:18:25;-3.80;99.90
64226;DHT22;50545;56.064;26.178;2022-12-05T03:21:01;-3.80;99.90
64226;DHT22;50545;56.064;26.178;2022-12-05T03:23:35;-3.80;99.90
64226;DHT22;50545;56.064;26.178;2022-12-05T03:29:12;-3.80;99.90
64226;DHT22;50545;56.064;26.178;2022-12-05T03:38:07;-3.90;99.90
64226;DHT22;50545;56.064;26.178;2022-12-05T03:40:51;-3.90;99.90
64226;DHT22;50545;56.064;26.178;2022-12-05T03:43:36;-3.90;99.90
64226;DHT22;50545;56.064;26.178;2022-12-05T03:48:52;-4.00;99.90
64226;DHT22;50545;56.064;26.178;2022-12-05T03:51:27;-3.90;99.90
64226;DHT22;50545;56.064;26.178;2022-12-05T03:54:03;-4.00;99.90
64226;DHT22;50545;56.064;26.178;2022-12-05T03:56:44;-4.00;99.90
64226;DHT22;50545;56.064;26.178;2022-12-05T04:01:41;-4.10;99.90
64226;DHT22;50545;56.064;26.178;2022-12-05T04:04:24;-4.10;99.90
64226;DHT22;50545;56.064;26.178;2022-12-05T04:06:55;-4.10;99.90
64226;DHT22;50545;56.064;26.178;2022-12-05T04:09:27;-4.20;99.90
64226;DHT22;50545;56.064;26.178;2022-12-05T04:12:17;-4.20;99.90
64226;DHT22;50545;56.064;26.178;2022-12-05T04:14:51;-4.20;99.90
64226;DHT22;50545;56.064;26.178;2022-12-05T04:20:25;-4.20;99.90
64226;DHT22;50545;56.064;26.178;2022-12-05T04:23:13;-4.20;99.90
64226;DHT22;50545;56.064;26.178;2022-12-05T04:26:06;-4.20;99.90
64226;DHT22;50545;56.064;26.178;2022-12-05T04:29:07;-4.30;99.90
64226;DHT22;50545;56.064;26.178;2022-12-05T04:31:43;-4.20;99.90
64226;DHT22;50545;56.064;26.178;2022-12-05T04:34:14;-4.30;99.90
64226;DHT22;50545;56.064;26.178;2022-12-05T04:36:51;-4.30;99.90
64226;DHT22;50545;56.064;26.178;2022-12-05T04:42:13;-4.30;99.90
64226;DHT22;50545;56.064;26.178;2022-12-05T04:45:02;-4.30;99.90
64226;DHT22;50545;56.064;26.178;2022-12-05T04:47:36;-4.30;99.90
64226;DHT22;50545;56.064;26.178;2022-12-05T04:50:06;-4.30;99.90
64226;DHT22;50545;56.064;26.178;2022-12-05T04:52:35;-4.30;99.90
64226;DHT22;50545;56.064;26.178;2022-12-05T04:55:11;-4.30;99.90
64226;DHT22;50545;56.064;26.178;2022-12-05T04:57:51;-4.30;99.90
64226;DHT22;50545;56.064;26.178;2022-12-05T05:00:20;-4.40;99.90
64226;DHT22;50545;56.064;26.178;2022-12-05T05:02:55;-4.40;99.90
64226;DHT22;50545;56.064;26.178;2022-12-05T05:05:25;-4.40;99.90
64226;DHT22;50545;56.064;26.178;2022-12-05T05:07:54;-4.40;99.90
64226;DHT22;50545;56.064;26.178;2022-12-05T05:10:36;-4.40;99.90
64226;DHT22;50545;56.064;26.178;2022-12-05T05:13:05;-4.40;99.90
64226;DHT22;50545;56.064;26.178;2022-12-05T05:15:32;-4.40;99.90
64226;DHT22;50545;56.064;26.178;2022-12-05T05:18:00;-4.40;99.90
64226;DHT22;50545;56.064;26.178;2022-12-05T05:20:27;-4.40;99.90
64226;DHT22;50545;56.064;26.178;2022-12-05T05:22:56;-4.40;99.90
64226;DHT22;50545;56.064;26.178;2022-12-05T05:25:24;-4.40;99.90
64226;DHT22;50545;56.064;26.178;2022-12-05T05:27:54;-4.50;99.90
64226;DHT22;50545;56.064;26.178;2022-12-05T05:30:23;-4.50;99.90
64226;DHT22;50545;56.064;26.178;2022-12-05T05:32:51;-4.50;99.90
64226;DHT22;50545;56.064;26.178;2022-12-05T05:35:18;-4.50;99.90
64226;DHT22;50545;56.064;26.178;2022-12-05T05:37:46;-4.50;99.90
64226;DHT22;50545;56.064;26.178;2022-12-05T05:40:13;-4.50;99.90
64226;DHT22;50545;56.064;26.178;2022-12-05T05:42:46;-4.50;99.90
64226;DHT22;50545;56.064;26.178;2022-12-05T05:45:14;-4.50;99.90
64226;DHT22;50545;56.064;26.178;2022-12-05T05:47:42;-4.50;99.90
64226;DHT22;50545;56.064;26.178;2022-12-05T05:50:10;-4.60;99.90
64226;DHT22;50545;56.064;26.178;2022-12-05T05:52:46;-4.60;99.90
64226;DHT22;50545;56.064;26.178;2022-12-05T05:55:14;-4.60;99.90
64226;DHT22;50545;56.064;26.178;2022-12-05T05:57:41;-4.60;99.90
64226;DHT22;50545;56.064;26.178;2022-12-05T06:00:09;-4.60;99.90
64226;DHT22;50545;56.064;26.178;2022-12-05T06:02:36;-4.60;99.90
64226;DHT22;50545;56.064;26.178;2022-12-05T06:05:04;-4.50;99.90
64226;DHT22;50545;56.064;26.178;2022-12-05T06:07:32;-4.60;99.90
64226;DHT22;50545;56.064;26.178;2022-12-05T06:09:59;-4.60;99.90
64226;DHT22;50545;56.064;26.178;2022-12-05T06:12:27;-4.60;99.90
64226;DHT22;50545;56.064;26.178;2022-12-05T06:14:54;-4.60;99.90
64226;DHT22;50545;56.064;26.178;2022-12-05T06:17:22;-4.60;99.90
64226;DHT22;50545;56.064;26.178;2022-12-05T06:19:49;-4.60;99.90
64226;DHT22;50545;56.064;26.178;2022-12-05T06:22:16;-4.60;99.90
64226;DHT22;50545;56.064;26.178;2022-12-05T06:24:43;-4.60;99.90
64226;DHT22;50545;56.064;26.178;2022-12-05T06:27:11;-4.60;99.90
64226;DHT22;50545;56.064;26.178;2022-12-05T06:29:38;-4.60;99.90
64226;DHT22;50545;56.064;26.178;2022-12-05T06:32:05;-4.60;99.90
64226;DHT22;50545;56.064;26.178;2022-12-05T06:34:33;-4.60;99.90
64226;DHT22;50545;56.064;26.178;2022-12-05T06:37:01;-4.70;99.90
64226;DHT22;50545;56.064;26.178;2022-12-05T06:39:28;-4.60;99.90
64226;DHT22;50545;56.064;26.178;2022-12-05T06:41:56;-4.60;99.90
64226;DHT22;50545;56.064;26.178;2022-12-05T06:44:24;-4.70;99.90
64226;DHT22;50545;56.064;26.178;2022-12-05T06:46:53;-4.70;99.90
64226;DHT22;50545;56.064;26.178;2022-12-05T06:49:22;-4.70;99.90
64226;DHT22;50545;56.064;26.178;2022-12-05T06:51:59;-4.70;99.90
64226;DHT22;50545;56.064;26.178;2022-12-05T06:54:26;-4.70;99.90
64226;DHT22;50545;56.064;26.178;2022-12-05T06:56:53;-4.70;99.90
64226;DHT22;50545;56.064;26.178;2022-12-05T06:59:21;-4.70;99.90
64226;DHT22;50545;56.064;26.178;2022-12-05T07:01:48;-4.70;99.90
64226;DHT22;50545;56.064;26.178;2022-12-05T07:04:21;-4.70;99.90
64226;DHT22;50545;56.064;26.178;2022-12-05T07:06:53;-4.70;99.90
64226;DHT22;50545;56.064;26.178;2022-12-05T07:09:23;-4.70;99.90
64226;DHT22;50545;56.064;26.178;2022-12-05T07:12:13;-4.70;99.90
64226;DHT22;50545;56.064;26.178;2022-12-05T07:14:42;-4.70;99.90
64226;DHT22;50545;56.064;26.178;2022-12-05T07:17:19;-4.70;99.90
64226;DHT22;50545;56.064;26.178;2022-12-05T07:19:47;-4.70;99.90
64226;DHT22;50545;56.064;26.178;2022-12-05T07:22:19;-4.70;99.90
64226;DHT22;50545;56.064;26.178;2022-12-05T07:24:49;-4.70;99.90
64226;DHT22;50545;56.064;26.178;2022-12-05T07:27:16;-4.60;99.90
64226;DHT22;50545;56.064;26.178;2022-12-05T07:29:52;-4.60;99.90
64226;DHT22;50545;56.064;26.178;2022-12-05T07:32:19;-4.60;99.90
64226;DHT22;50545;56.064;26.178;2022-12-05T07:34:46;-4.60;99.90
64226;DHT22;50545;56.064;26.178;2022-12-05T07:37:20;-4.60;99.90
64226;DHT22;50545;56.064;26.178;2022-12-05T07:39:48;-4.60;99.90
64226;DHT22;50545;56.064;26.178;2022-12-05T07:42:15;-4.60;99.90
64226;DHT22;50545;56.064;26.178;2022-12-05T07:44:42;-4.70;99.90
64226;DHT22;50545;56.064;26.178;2022-12-05T07:47:09;-4.60;99.90
64226;DHT22;50545;56.064;26.178;2022-12-05T07:49:37;-4.60;99.90
64226;DHT22;50545;56.064;26.178;2022-12-05T07:52:04;-4.60;99.90
64226;DHT22;50545;56.064;26.178;2022-12-05T07:54:32;-4.60;99.90
64226;DHT22;50545;56.064;26.178;2022-12-05T07:56:59;-4.50;99.90
64226;DHT22;50545;56.064;26.178;2022-12-05T07:59:26;-4.60;99.90
64226;DHT22;50545;56.064;26.178;2022-12-05T08:01:54;-4.50;99.90
64226;DHT22;50545;56.064;26.178;2022-12-05T08:04:21;-4.50;99.90
64226;DHT22;50545;56.064;26.178;2022-12-05T08:06:48;-4.50;99.90
64226;DHT22;50545;56.064;26.178;2022-12-05T08:09:16;-4.50;99.90
64226;DHT22;50545;56.064;26.178;2022-12-05T08:11:43;-4.50;99.90
64226;DHT22;50545;56.064;26.178;2022-12-05T08:14:18;-4.40;99.90
64226;DHT22;50545;56.064;26.178;2022-12-05T08:16:45;-4.40;99.90
64226;DHT22;50545;56.064;26.178;2022-12-05T08:19:13;-4.40;99.90
64226;DHT22;50545;56.064;26.178;2022-12-05T08:21:41;-4.40;99.90
64226;DHT22;50545;56.064;26.178;2022-12-05T08:24:09;-4.40;99.90
64226;DHT22;50545;56.064;26.178;2022-12-05T08:26:37;-4.40;99.90
64226;DHT22;50545;56.064;26.178;2022-12-05T08:29:09;-4.40;99.90
64226;DHT22;50545;56.064;26.178;2022-12-05T08:31:46;-4.40;99.90
64226;DHT22;50545;56.064;26.178;2022-12-05T08:34:14;-4.40;99.90
64226;DHT22;50545;56.064;26.178;2022-12-05T08:36:43;-4.40;99.90
64226;DHT22;50545;56.064;26.178;2022-12-05T08:39:13;-4.50;99.90
64226;DHT22;50545;56.064;26.178;2022-12-05T08:41:42;-4.50;99.90
64226;DHT22;50545;56.064;26.178;2022-12-05T08:44:11;-4.50;99.90
64226;DHT22;50545;56.064;26.178;2022-12-05T08:46:43;-4.50;99.90
64226;DHT22;50545;56.064;26.178;2022-12-05T08:49:11;-4.50;99.90
64226;DHT22;50545;56.064;26.178;2022-12-05T08:51:40;-4.60;99.90
64226;DHT22;50545;56.064;26.178;2022-12-05T08:54:08;-4.60;99.90
64226;DHT22;50545;56.064;26.178;2022-12-05T08:56:35;-4.70;99.90
64226;DHT22;50545;56.064;26.178;2022-12-05T08:59:02;-4.70;99.90
64226;DHT22;50545;56.064;26.178;2022-12-05T09:01:32;-4.70;99.90
64226;DHT22;50545;56.064;26.178;2022-12-05T09:04:03;-4.70;99.90
64226;DHT22;50545;56.064;26.178;2022-12-05T09:06:32;-4.70;99.90
64226;DHT22;50545;56.064;26.178;2022-12-05T09:09:04;-4.70;99.90
64226;DHT22;50545;56.064;26.178;2022-12-05T09:11:35;-4.70;99.90
64226;DHT22;50545;56.064;26.178;2022-12-05T09:14:03;-4.70;99.90
64226;DHT22;50545;56.064;26.178;2022-12-05T09:16:33;-4.70;99.90
64226;DHT22;50545;56.064;26.178;2022-12-05T09:19:17;-4.60;99.90
64226;DHT22;50545;56.064;26.178;2022-12-05T09:21:46;-4.60;99.90
64226;DHT22;50545;56.064;26.178;2022-12-05T09:24:14;-4.60;99.90
64226;DHT22;50545;56.064;26.178;2022-12-05T09:26:41;-4.60;99.90
64226;DHT22;50545;56.064;26.178;2022-12-05T09:29:10;-4.60;99.90
64226;DHT22;50545;56.064;26.178;2022-12-05T09:31:43;-4.60;99.90
64226;DHT22;50545;56.064;26.178;2022-12-05T09:34:11;-4.60;99.90
64226;DHT22;50545;56.064;26.178;2022-12-05T09:36:40;-4.60;99.90
64226;DHT22;50545;56.064;26.178;2022-12-05T09:39:08;-4.60;99.90
64226;DHT22;50545;56.064;26.178;2022-12-05T09:55:43;-4.60;99.90
64226;DHT22;50545;56.064;26.178;2022-12-05T09:58:24;-4.70;99.90
64226;DHT22;50545;56.064;26.178;2022-12-05T10:01:01;-4.70;99.90
64226;DHT22;50545;56.064;26.178;2022-12-05T10:04:43;-4.70;99.90
64226;DHT22;50545;56.064;26.178;2022-12-05T10:09:24;-4.60;99.90
64226;DHT22;50545;56.064;26.178;2022-12-05T10:15:03;-4.60;99.90
64226;DHT22;50545;56.064;26.178;2022-12-05T10:17:37;-4.60;99.90
64226;DHT22;50545;56.064;26.178;2022-12-05T10:23:02;-4.70;99.90
64226;DHT22;50545;56.064;26.178;2022-12-05T10:25:32;-4.70;99.90
64226;DHT22;50545;56.064;26.178;2022-12-05T10:28:05;-4.70;99.90
64226;DHT22;50545;56.064;26.178;2022-12-05T10:30:36;-4.60;99.90
64226;DHT22;50545;56.064;26.178;2022-12-05T10:33:14;-4.60;99.90
64226;DHT22;50545;56.064;26.178;2022-12-05T10:35:43;-4.60;99.90
64226;DHT22;50545;56.064;26.178;2022-12-05T10:38:21;-4.60;99.90
64226;DHT22;50545;56.064;26.178;2022-12-05T10:40:52;-4.50;99.90
64226;DHT22;50545;56.064;26.178;2022-12-05T10:43:25;-4.50;99.90
64226;DHT22;50545;56.064;26.178;2022-12-05T10:45:52;-4.50;99.90
64226;DHT22;50545;56.064;26.178;2022-12-05T10:48:21;-4.40;99.90
64226;DHT22;50545;56.064;26.178;2022-12-05T10:50:51;-4.40;99.90
64226;DHT22;50545;56.064;26.178;2022-12-05T10:53:24;-4.40;99.90
64226;DHT22;50545;56.064;26.178;2022-12-05T10:55:52;-4.40;99.90
64226;DHT22;50545;56.064;26.178;2022-12-05T10:58:56;-4.30;99.90
64226;DHT22;50545;56.064;26.178;2022-12-05T11:01:26;-4.30;99.90
64226;DHT22;50545;56.064;26.178;2022-12-05T11:03:59;-4.30;99.90
64226;DHT22;50545;56.064;26.178;2022-12-05T11:06:31;-4.30;99.90
64226;DHT22;50545;56.064;26.178;2022-12-05T11:12:28;-4.50;99.90
64226;DHT22;50545;56.064;26.178;2022-12-05T11:17:34;-4.70;99.90
64226;DHT22;50545;56.064;26.178;2022-12-05T11:22:54;-4.80;99.90
64226;DHT22;50545;56.064;26.178;2022-12-05T11:28:40;-4.80;99.90
64226;DHT22;50545;56.064;26.178;2022-12-05T11:31:02;-4.80;99.90
64226;DHT22;50545;56.064;26.178;2022-12-05T11:33:32;-4.80;99.90
64226;DHT22;50545;56.064;26.178;2022-12-05T11:36:23;-4.80;99.90
64226;DHT22;50545;56.064;26.178;2022-12-05T11:38:51;-4.80;99.90
64226;DHT22;50545;56.064;26.178;2022-12-05T11:44:37;-4.80;99.90
64226;DHT22;50545;56.064;26.178;2022-12-05T11:55:45;-4.70;99.90
64226;DHT22;50545;56.064;26.178;2022-12-05T11:58:41;-4.70;99.90
64226;DHT22;50545;56.064;26.178;2022-12-05T12:01:38;-4.70;99.90
64226;DHT22;50545;56.064;26.178;2022-12-05T12:07:17;-4.70;99.90
64226;DHT22;50545;56.064;26.178;2022-12-05T12:15:45;-4.70;99.90
64226;DHT22;50545;56.064;26.178;2022-12-05T12:18:41;-4.70;99.90
64226;DHT22;50545;56.064;26.178;2022-12-05T12:21:16;-4.70;99.90
64226;DHT22;50545;56.064;26.178;2022-12-05T12:37:17;-4.80;99.90
64226;DHT22;50545;56.064;26.178;2022-12-05T12:42:31;-4.90;99.90
64226;DHT22;50545;56.064;26.178;2022-12-05T12:51:16;-4.90;99.90
64226;DHT22;50545;56.064;26.178;2022-12-05T13:02:30;-5.00;99.90
64226;DHT22;50545;56.064;26.178;2022-12-05T13:08:04;-5.00;99.90
64226;DHT22;50545;56.064;26.178;2022-12-05T13:13:05;-5.10;99.90
64226;DHT22;50545;56.064;26.178;2022-12-05T13:15:39;-5.10;99.90
64226;DHT22;50545;56.064;26.178;2022-12-05T13:18:15;-5.10;99.90
64226;DHT22;50545;56.064;26.178;2022-12-05T13:20:43;-5.10;99.90
64226;DHT22;50545;56.064;26.178;2022-12-05T13:23:14;-5.10;99.90
64226;DHT22;50545;56.064;26.178;2022-12-05T13:25:42;-5.10;99.90
64226;DHT22;50545;56.064;26.178;2022-12-05T13:28:32;-5.10;99.90
64226;DHT22;50545;56.064;26.178;2022-12-05T13:31:01;-5.10;99.90
64226;DHT22;50545;56.064;26.178;2022-12-05T13:33:40;-5.10;99.90
64226;DHT22;50545;56.064;26.178;2022-12-05T13:36:22;-5.10;99.90
64226;DHT22;50545;56.064;26.178;2022-12-05T13:39:18;-5.20;99.90
64226;DHT22;50545;56.064;26.178;2022-12-05T13:42:12;-5.20;99.90
64226;DHT22;50545;56.064;26.178;2022-12-05T13:44:50;-5.20;99.90
64226;DHT22;50545;56.064;26.178;2022-12-05T13:55:34;-5.40;99.90
64226;DHT22;50545;56.064;26.178;2022-12-05T14:00:45;-5.40;99.90
64226;DHT22;50545;56.064;26.178;2022-12-05T14:05:52;-5.40;99.90
64226;DHT22;50545;56.064;26.178;2022-12-05T14:19:19;-5.50;99.90
64226;DHT22;50545;56.064;26.178;2022-12-05T14:22:17;-5.50;99.90
64226;DHT22;50545;56.064;26.178;2022-12-05T14:24:59;-5.50;99.90
64226;DHT22;50545;56.064;26.178;2022-12-05T14:33:39;-5.60;99.90
64226;DHT22;50545;56.064;26.178;2022-12-05T14:36:11;-5.60;99.90
64226;DHT22;50545;56.064;26.178;2022-12-05T14:38:41;-5.60;99.90
64226;DHT22;50545;56.064;26.178;2022-12-05T14:41:21;-5.60;99.90
64226;DHT22;50545;56.064;26.178;2022-12-05T14:43:53;-5.60;99.90
64226;DHT22;50545;56.064;26.178;2022-12-05T14:46:23;-5.60;99.90
64226;DHT22;50545;56.064;26.178;2022-12-05T14:48:51;-5.60;99.90
64226;DHT22;50545;56.064;26.178;2022-12-05T14:54:07;-5.70;99.90
64226;DHT22;50545;56.064;26.178;2022-12-05T14:56:42;-5.70;99.90
64226;DHT22;50545;56.064;26.178;2022-12-05T15:02:28;-5.70;99.90
64226;DHT22;50545;56.064;26.178;2022-12-05T15:07:45;-5.80;99.90
64226;DHT22;50545;56.064;26.178;2022-12-05T15:10:16;-5.80;99.90
64226;DHT22;50545;56.064;26.178;2022-12-05T15:13:01;-5.80;99.90
64226;DHT22;50545;56.064;26.178;2022-12-05T15:21:09;-5.80;99.90
64226;DHT22;50545;56.064;26.178;2022-12-05T15:23:44;-5.80;99.90
64226;DHT22;50545;56.064;26.178;2022-12-05T15:29:25;-5.80;99.90
64226;DHT22;50545;56.064;26.178;2022-12-05T15:32:05;-5.80;99.90
64226;DHT22;50545;56.064;26.178;2022-12-05T15:34:59;-5.80;99.90
64226;DHT22;50545;56.064;26.178;2022-12-05T15:40:07;-5.80;99.90
64226;DHT22;50545;56.064;26.178;2022-12-05T15:42:43;-5.80;99.90
64226;DHT22;50545;56.064;26.178;2022-12-05T15:58:34;-5.80;99.90
64226;DHT22;50545;56.064;26.178;2022-12-05T16:01:14;-5.90;99.90
64226;DHT22;50545;56.064;26.178;2022-12-05T16:03:49;-5.90;99.90
64226;DHT22;50545;56.064;26.178;2022-12-05T16:06:35;-5.90;99.90
64226;DHT22;50545;56.064;26.178;2022-12-05T16:09:06;-5.90;99.90
64226;DHT22;50545;56.064;26.178;2022-12-05T16:11:37;-5.90;99.90
64226;DHT22;50545;56.064;26.178;2022-12-05T16:14:06;-5.90;99.90
64226;DHT22;50545;56.064;26.178;2022-12-05T16:16:36;-5.90;99.90
64226;DHT22;50545;56.064;26.178;2022-12-05T16:19:15;-5.90;99.90
64226;DHT22;50545;56.064;26.178;2022-12-05T16:21:46;-5.90;99.90
64226;DHT22;50545;56.064;26.178;2022-12-05T16:24:20;-5.90;99.90
64226;DHT22;50545;56.064;26.178;2022-12-05T16:26:58;-5.90;99.90
64226;DHT22;50545;56.064;26.178;2022-12-05T16:29:32;-5.90;99.90
64226;DHT22;50545;56.064;26.178;2022-12-05T16:32:02;-5.90;99.90
64226;DHT22;50545;56.064;26.178;2022-12-05T16:34:32;-5.90;99.90
64226;DHT22;50545;56.064;26.178;2022-12-05T16:37:00;-5.90;99.90
64226;DHT22;50545;56.064;26.178;2022-12-05T16:39:27;-5.90;99.90
64226;DHT22;50545;56.064;26.178;2022-12-05T16:41:55;-5.90;99.90
64226;DHT22;50545;56.064;26.178;2022-12-05T16:46:58;-5.90;99.90
64226;DHT22;50545;56.064;26.178;2022-12-05T16:54:34;-5.90;99.90
64226;DHT22;50545;56.064;26.178;2022-12-05T16:57:02;-5.90;99.90
64226;DHT22;50545;56.064;26.178;2022-12-05T16:59:32;-5.90;99.90
64226;DHT22;50545;56.064;26.178;2022-12-05T17:02:01;-5.90;99.90
64226;DHT22;50545;56.064;26.178;2022-12-05T17:04:28;-5.90;99.90
64226;DHT22;50545;56.064;26.178;2022-12-05T17:06:57;-5.90;99.90
64226;DHT22;50545;56.064;26.178;2022-12-05T17:09:24;-5.90;99.90
64226;DHT22;50545;56.064;26.178;2022-12-05T17:11:54;-5.90;99.90
64226;DHT22;50545;56.064;26.178;2022-12-05T17:14:24;-5.90;99.90
64226;DHT22;50545;56.064;26.178;2022-12-05T17:16:52;-5.90;99.90
64226;DHT22;50545;56.064;26.178;2022-12-05T17:19:19;-5.90;99.90
64226;DHT22;50545;56.064;26.178;2022-12-05T17:21:46;-5.90;99.90
64226;DHT22;50545;56.064;26.178;2022-12-05T17:24:16;-5.90;99.90
64226;DHT22;50545;56.064;26.178;2022-12-05T17:26:44;-5.90;99.90
64226;DHT22;50545;56.064;26.178;2022-12-05T17:29:12;-5.90;99.90
64226;DHT22;50545;56.064;26.178;2022-12-05T17:31:39;-5.90;99.90
64226;DHT22;50545;56.064;26.178;2022-12-05T17:34:13;-5.90;99.90
64226;DHT22;50545;56.064;26.178;2022-12-05T17:36:43;-5.90;99.90
64226;DHT22;50545;56.064;26.178;2022-12-05T17:39:10;-5.90;99.90
64226;DHT22;50545;56.064;26.178;2022-12-05T17:41:38;-5.90;99.90
64226;DHT22;50545;56.064;26.178;2022-12-05T17:44:06;-5.90;99.90
64226;DHT22;50545;56.064;26.178;2022-12-05T17:46:33;-5.90;99.90
64226;DHT22;50545;56.064;26.178;2022-12-05T17:49:01;-5.90;99.90
64226;DHT22;50545;56.064;26.178;2022-12-05T17:51:28;-5.90;99.90
64226;DHT22;50545;56.064;26.178;2022-12-05T17:53:56;-5.90;99.90
64226;DHT22;50545;56.064;26.178;2022-12-05T17:56:23;-5.90;99.90
64226;DHT22;50545;56.064;26.178;2022-12-05T17:58:50;-5.80;99.90
64226;DHT22;50545;56.064;26.178;2022-12-05T18:01:19;-5.80;99.90
64226;DHT22;50545;56.064;26.178;2022-12-05T18:03:47;-5.80;99.90
64226;DHT22;50545;56.064;26.178;2022-12-05T18:06:15;-5.90;99.90
64226;DHT22;50545;56.064;26.178;2022-12-05T18:08:43;-5.80;99.90
64226;DHT22;50545;56.064;26.178;2022-12-05T18:11:15;-5.80;99.90
64226;DHT22;50545;56.064;26.178;2022-12-05T18:13:42;-5.80;99.90
64226;DHT22;50545;56.064;26.178;2022-12-05T18:16:09;-5.80;99.90
64226;DHT22;50545;56.064;26.178;2022-12-05T18:18:37;-5.80;99.90
64226;DHT22;50545;56.064;26.178;2022-12-05T18:21:10;-5.80;99.90
64226;DHT22;50545;56.064;26.178;2022-12-05T18:23:38;-5.80;99.90
64226;DHT22;50545;56.064;26.178;2022-12-05T18:26:07;-5.80;99.90
64226;DHT22;50545;56.064;26.178;2022-12-05T18:28:36;-5.80;99.90
64226;DHT22;50545;56.064;26.178;2022-12-05T18:31:09;-5.80;99.90
64226;DHT22;50545;56.064;26.178;2022-12-05T18:33:37;-5.80;99.90
64226;DHT22;50545;56.064;26.178;2022-12-05T18:36:13;-5.80;99.90
64226;DHT22;50545;56.064;26.178;2022-12-05T18:38:53;-5.80;99.90
64226;DHT22;50545;56.064;26.178;2022-12-05T18:41:21;-5.80;99.90
64226;DHT22;50545;56.064;26.178;2022-12-05T18:43:49;-5.80;99.90
64226;DHT22;50545;56.064;26.178;2022-12-05T18:46:17;-5.70;99.90
64226;DHT22;50545;56.064;26.178;2022-12-05T18:48:44;-5.70;99.90
64226;DHT22;50545;56.064;26.178;2022-12-05T18:51:19;-5.80;99.90
64226;DHT22;50545;56.064;26.178;2022-12-05T18:53:49;-5.80;99.90
64226;DHT22;50545;56.064;26.178;2022-12-05T18:56:25;-5.70;99.90
64226;DHT22;50545;56.064;26.178;2022-12-05T18:58:55;-5.70;99.90
64226;DHT22;50545;56.064;26.178;2022-12-05T19:01:23;-5.70;99.90
64226;DHT22;50545;56.064;26.178;2022-12-05T19:03:51;-5.70;99.90
64226;DHT22;50545;56.064;26.178;2022-12-05T19:06:22;-5.70;99.90
64226;DHT22;50545;56.064;26.178;2022-12-05T19:08:53;-5.70;99.90
64226;DHT22;50545;56.064;26.178;2022-12-05T19:11:21;-5.70;99.90
64226;DHT22;50545;56.064;26.178;2022-12-05T19:13:57;-5.70;99.90